Airfield :
LOGIN :

Register | Disclaimer

   EN    FR    IT 

 










Legend :    VFR   Marginal VFR   IFR   Intensive IFR   Very Intensive IFR
Visi :
Ceiling :
>= 8 km
>= 3000ft
5 to 8 km
1000 to 3000 ft
1500m to 5 km
500 to 1000 ft
800 to 1500m
200 to 500 ft
< 800m
< 200 ft
Symbols :   Thunderstorms  Fog  Heavy snow  Heavy precipitations  Wind > 20 kt
SIGMETs :     Misc.  Thunderstorms  Icing  Turbulence  Mountain Waves  Volcanic Ashes






- Airport Elevation : 665 ft
- IATA code : NOC


EIKN - Connaught / Knock- Ireland West

CURRENT METAR :
  • 280930Z 17009KT 120V210 0300 -DZ FG BKN002 BKN007 06/06 Q0987 NOSIG

EXPIRED METARs :
  • 280900Z 15010KT 0500 -RADZ FG BKN002 BKN008 05/05 Q0988 TEMPO 0500
  • 280830Z 15012KT 110V180 0600 -RADZ FG BKN002 BKN007 04/04 Q0988 TEMPO 0500
  • 280800Z 14012KT 110V200 0800 -RADZ FG BKN003 BKN009 04/04 Q0989 TEMPO 0500
  • 280730Z 13015KT 100V170 1200 -RA BKN003 BKN009 04/04 Q0990 TEMPO 0500
  • 280700Z 13015G25KT 100V170 0600 -RA FG VV003 03/03 Q0992 TEMPO 0500
  • 280630Z 12014G24KT 090V170 0800 -RA FG VV002 03/03 Q0993 NOSIG

TAF TAF EIKN
Valid from the 28 at 06:00 until the 29 at 06:00 UTC


280500Z 2806/2906 12013KT 3000 -RA SCT002 BKN005
TEMPO 2806/2809 13015G26KT
TEMPO 2806/2810 0500 RADZ FG BKN002
BECMG 2809/2811 20013KT
BECMG 2811/2813 23014KT
TEMPO 2811/2816 22015G26KT
TEMPO 2811/2813 0500 -DZ FG BKN002
BECMG 2813/2815 9999 NSW SCT006 BKN012
BECMG 2816/2818 18010KT 3000 -RADZ BKN005
TEMPO 2817/2821 2000 BKN003
BECMG 2818/2820 15013KT
BECMG 2821/2823 24018G30KT 9999 BKN012
BECMG 2823/2901 23014KT FEW012 BKN025
TEMPO 2901/2904 22015G25KT
TEMPO 2901/2903 -SHRA SCT012 SCT017CB
TEMPO 2903/2906 1500 -SHSN BKN003 SCT017CB
BECMG 2904/2906 20016G27KT



MET'MAP, your aeronautical weather chart ! - Copyright ORBIFLY December 2007 - Disclaimer

ORBIFLY MET'MAP TEAM :

Programming & Development : Alexandra Zaïnal
Concept & original design : Baudouin d'Aumeries
Assistance for programming : Marc-Olivier Méhu
Technical & hardware support : Manuel Goepfert

Contact : metmap@orbifly.com




SOURCES & CREDITS :

   NOAA